sensor_id;sensor_type;location;lat;lon;timestamp;P1;durP1;ratioP1;P2;durP2;ratioP2
50393;SDS011;36308;46.312;25.288;2023-04-03T00:01:22;3.35;;;1.63;;
50393;SDS011;36308;46.312;25.288;2023-04-03T00:03:48;5.03;;;2.03;;
50393;SDS011;36308;46.312;25.288;2023-04-03T00:06:15;8.55;;;2.80;;
50393;SDS011;36308;46.312;25.288;2023-04-03T00:08:40;6.50;;;2.20;;
50393;SDS011;36308;46.312;25.288;2023-04-03T00:11:06;8.15;;;3.40;;
50393;SDS011;36308;46.312;25.288;2023-04-03T00:13:33;6.65;;;2.72;;
50393;SDS011;36308;46.312;25.288;2023-04-03T00:15:59;7.55;;;3.90;;
50393;SDS011;36308;46.312;25.288;2023-04-03T00:18:24;7.85;;;4.90;;
50393;SDS011;36308;46.312;25.288;2023-04-03T00:20:50;7.95;;;4.43;;
50393;SDS011;36308;46.312;25.288;2023-04-03T00:23:16;7.03;;;4.22;;
50393;SDS011;36308;46.312;25.288;2023-04-03T00:25:41;7.15;;;3.90;;
50393;SDS011;36308;46.312;25.288;2023-04-03T00:28:08;7.25;;;3.50;;
50393;SDS011;36308;46.312;25.288;2023-04-03T00:30:33;8.05;;;3.97;;
50393;SDS011;36308;46.312;25.288;2023-04-03T00:32:59;10.60;;;5.43;;
50393;SDS011;36308;46.312;25.288;2023-04-03T00:35:25;7.47;;;4.28;;
50393;SDS011;36308;46.312;25.288;2023-04-03T00:37:51;9.63;;;4.20;;
50393;SDS011;36308;46.312;25.288;2023-04-03T00:40:19;7.45;;;4.10;;
50393;SDS011;36308;46.312;25.288;2023-04-03T00:42:46;10.30;;;5.13;;
50393;SDS011;36308;46.312;25.288;2023-04-03T00:47:55;7.28;;;3.95;;
50393;SDS011;36308;46.312;25.288;2023-04-03T00:50:25;6.20;;;3.30;;
50393;SDS011;36308;46.312;25.288;2023-04-03T00:52:51;5.15;;;3.13;;
50393;SDS011;36308;46.312;25.288;2023-04-03T00:55:17;4.68;;;2.83;;
50393;SDS011;36308;46.312;25.288;2023-04-03T00:57:43;4.53;;;2.42;;
50393;SDS011;36308;46.312;25.288;2023-04-03T01:00:12;4.18;;;2.30;;
50393;SDS011;36308;46.312;25.288;2023-04-03T01:02:41;6.72;;;3.17;;
50393;SDS011;36308;46.312;25.288;2023-04-03T01:05:07;3.13;;;2.10;;
50393;SDS011;36308;46.312;25.288;2023-04-03T01:07:33;3.10;;;1.80;;
50393;SDS011;36308;46.312;25.288;2023-04-03T01:10:02;2.35;;;1.48;;
50393;SDS011;36308;46.312;25.288;2023-04-03T01:12:31;1.70;;;1.20;;
50393;SDS011;36308;46.312;25.288;2023-04-03T01:14:59;1.80;;;1.25;;
50393;SDS011;36308;46.312;25.288;2023-04-03T01:25:29;1.98;;;1.63;;
50393;SDS011;36308;46.312;25.288;2023-04-03T01:27:54;3.40;;;1.80;;
50393;SDS011;36308;46.312;25.288;2023-04-03T01:30:21;3.65;;;1.63;;
50393;SDS011;36308;46.312;25.288;2023-04-03T01:32:52;3.70;;;1.63;;
50393;SDS011;36308;46.312;25.288;2023-04-03T01:35:18;2.47;;;1.30;;
50393;SDS011;36308;46.312;25.288;2023-04-03T01:37:44;2.08;;;1.50;;
50393;SDS011;36308;46.312;25.288;2023-04-03T01:40:09;2.58;;;1.95;;
50393;SDS011;36308;46.312;25.288;2023-04-03T01:42:35;1.65;;;0.93;;
50393;SDS011;36308;46.312;25.288;2023-04-03T01:45:01;0.90;;;0.70;;
50393;SDS011;36308;46.312;25.288;2023-04-03T01:47:26;1.02;;;0.70;;
50393;SDS011;36308;46.312;25.288;2023-04-03T01:49:51;0.50;;;0.50;;
50393;SDS011;36308;46.312;25.288;2023-04-03T01:52:17;1.08;;;0.70;;
50393;SDS011;36308;46.312;25.288;2023-04-03T01:54:42;1.35;;;0.70;;
50393;SDS011;36308;46.312;25.288;2023-04-03T01:57:08;2.63;;;1.10;;
50393;SDS011;36308;46.312;25.288;2023-04-03T01:59:33;3.55;;;1.00;;
50393;SDS011;36308;46.312;25.288;2023-04-03T02:01:59;2.05;;;1.10;;
50393;SDS011;36308;46.312;25.288;2023-04-03T02:04:25;1.65;;;1.10;;
50393;SDS011;36308;46.312;25.288;2023-04-03T02:06:51;1.30;;;1.00;;
50393;SDS011;36308;46.312;25.288;2023-04-03T02:09:16;8.57;;;4.18;;
50393;SDS011;36308;46.312;25.288;2023-04-03T02:11:42;8.55;;;4.75;;
50393;SDS011;36308;46.312;25.288;2023-04-03T02:14:07;3.42;;;2.22;;
50393;SDS011;36308;46.312;25.288;2023-04-03T02:16:33;3.65;;;1.80;;
50393;SDS011;36308;46.312;25.288;2023-04-03T02:18:58;4.22;;;1.45;;
50393;SDS011;36308;46.312;25.288;2023-04-03T02:21:24;3.00;;;1.85;;
50393;SDS011;36308;46.312;25.288;2023-04-03T02:23:49;3.08;;;1.85;;
50393;SDS011;36308;46.312;25.288;2023-04-03T02:26:15;2.83;;;1.80;;
50393;SDS011;36308;46.312;25.288;2023-04-03T02:28:41;3.22;;;2.00;;
50393;SDS011;36308;46.312;25.288;2023-04-03T02:31:07;3.35;;;2.00;;
50393;SDS011;36308;46.312;25.288;2023-04-03T02:33:34;3.35;;;2.00;;
50393;SDS011;36308;46.312;25.288;2023-04-03T02:36:01;3.08;;;2.00;;
50393;SDS011;36308;46.312;25.288;2023-04-03T02:38:28;2.67;;;1.75;;
50393;SDS011;36308;46.312;25.288;2023-04-03T02:40:59;2.50;;;1.70;;
50393;SDS011;36308;46.312;25.288;2023-04-03T02:43:28;2.53;;;1.85;;
50393;SDS011;36308;46.312;25.288;2023-04-03T02:45:54;2.70;;;1.67;;
50393;SDS011;36308;46.312;25.288;2023-04-03T02:48:19;3.25;;;1.60;;
50393;SDS011;36308;46.312;25.288;2023-04-03T02:50:45;3.17;;;2.10;;
50393;SDS011;36308;46.312;25.288;2023-04-03T02:53:10;5.15;;;2.70;;
50393;SDS011;36308;46.312;25.288;2023-04-03T02:55:36;5.90;;;4.20;;
50393;SDS011;36308;46.312;25.288;2023-04-03T02:58:01;4.13;;;3.30;;
50393;SDS011;36308;46.312;25.288;2023-04-03T03:00:28;3.72;;;2.80;;
50393;SDS011;36308;46.312;25.288;2023-04-03T03:02:55;3.10;;;2.22;;
50393;SDS011;36308;46.312;25.288;2023-04-03T03:05:20;3.92;;;2.60;;
50393;SDS011;36308;46.312;25.288;2023-04-03T03:07:47;4.63;;;3.05;;
50393;SDS011;36308;46.312;25.288;2023-04-03T03:10:13;6.22;;;3.85;;
50393;SDS011;36308;46.312;25.288;2023-04-03T03:12:39;6.18;;;4.13;;
50393;SDS011;36308;46.312;25.288;2023-04-03T03:15:06;7.72;;;4.30;;
50393;SDS011;36308;46.312;25.288;2023-04-03T03:17:32;5.28;;;3.17;;
50393;SDS011;36308;46.312;25.288;2023-04-03T03:19:57;4.05;;;2.90;;
50393;SDS011;36308;46.312;25.288;2023-04-03T03:22:23;4.78;;;2.88;;
50393;SDS011;36308;46.312;25.288;2023-04-03T03:24:48;2.88;;;2.17;;
50393;SDS011;36308;46.312;25.288;2023-04-03T03:27:14;2.08;;;1.58;;
50393;SDS011;36308;46.312;25.288;2023-04-03T03:29:41;16.33;;;9.27;;
50393;SDS011;36308;46.312;25.288;2023-04-03T03:32:07;13.48;;;8.90;;
50393;SDS011;36308;46.312;25.288;2023-04-03T03:34:33;14.38;;;9.95;;
50393;SDS011;36308;46.312;25.288;2023-04-03T03:36:58;17.15;;;14.65;;
50393;SDS011;36308;46.312;25.288;2023-04-03T03:39:24;28.42;;;16.67;;
50393;SDS011;36308;46.312;25.288;2023-04-03T03:41:50;57.03;;;27.63;;
50393;SDS011;36308;46.312;25.288;2023-04-03T03:44:15;63.97;;;32.42;;
50393;SDS011;36308;46.312;25.288;2023-04-03T03:46:41;72.97;;;35.75;;
50393;SDS011;36308;46.312;25.288;2023-04-03T03:49:06;76.18;;;38.60;;
50393;SDS011;36308;46.312;25.288;2023-04-03T03:51:32;111.85;;;47.90;;
50393;SDS011;36308;46.312;25.288;2023-04-03T03:53:57;92.95;;;43.45;;
50393;SDS011;36308;46.312;25.288;2023-04-03T03:56:23;105.55;;;44.17;;
50393;SDS011;36308;46.312;25.288;2023-04-03T03:58:48;92.18;;;40.60;;
50393;SDS011;36308;46.312;25.288;2023-04-03T04:01:14;107.50;;;51.13;;
50393;SDS011;36308;46.312;25.288;2023-04-03T04:03:42;117.70;;;57.63;;
50393;SDS011;36308;46.312;25.288;2023-04-03T04:06:07;119.78;;;63.85;;
50393;SDS011;36308;46.312;25.288;2023-04-03T04:08:33;105.95;;;56.28;;
50393;SDS011;36308;46.312;25.288;2023-04-03T04:10:58;86.72;;;47.80;;
50393;SDS011;36308;46.312;25.288;2023-04-03T04:13:24;41.70;;;23.23;;
50393;SDS011;36308;46.312;25.288;2023-04-03T04:15:49;43.50;;;23.58;;
50393;SDS011;36308;46.312;25.288;2023-04-03T04:18:15;45.05;;;24.58;;
50393;SDS011;36308;46.312;25.288;2023-04-03T04:20:40;60.85;;;31.92;;
50393;SDS011;36308;46.312;25.288;2023-04-03T04:23:06;54.28;;;29.13;;
50393;SDS011;36308;46.312;25.288;2023-04-03T04:25:31;75.90;;;38.45;;
50393;SDS011;36308;46.312;25.288;2023-04-03T04:27:57;77.70;;;39.63;;
50393;SDS011;36308;46.312;25.288;2023-04-03T04:30:23;67.80;;;35.83;;
50393;SDS011;36308;46.312;25.288;2023-04-03T04:32:48;79.82;;;38.03;;
50393;SDS011;36308;46.312;25.288;2023-04-03T04:35:14;61.13;;;28.50;;
50393;SDS011;36308;46.312;25.288;2023-04-03T04:37:40;40.42;;;21.25;;
50393;SDS011;36308;46.312;25.288;2023-04-03T04:40:06;21.10;;;11.80;;
50393;SDS011;36308;46.312;25.288;2023-04-03T04:42:32;15.32;;;9.35;;
50393;SDS011;36308;46.312;25.288;2023-04-03T04:44:57;9.48;;;6.65;;
50393;SDS011;36308;46.312;25.288;2023-04-03T04:47:23;12.48;;;7.05;;
50393;SDS011;36308;46.312;25.288;2023-04-03T04:49:48;11.05;;;6.97;;
50393;SDS011;36308;46.312;25.288;2023-04-03T04:52:14;9.18;;;6.00;;
50393;SDS011;36308;46.312;25.288;2023-04-03T04:54:40;93.22;;;39.78;;
50393;SDS011;36308;46.312;25.288;2023-04-03T04:57:05;71.05;;;35.30;;
50393;SDS011;36308;46.312;25.288;2023-04-03T04:59:31;11.93;;;7.65;;
50393;SDS011;36308;46.312;25.288;2023-04-03T05:01:56;12.40;;;9.10;;
50393;SDS011;36308;46.312;25.288;2023-04-03T05:04:22;15.02;;;11.00;;
50393;SDS011;36308;46.312;25.288;2023-04-03T05:06:47;15.98;;;11.55;;
50393;SDS011;36308;46.312;25.288;2023-04-03T05:09:13;19.38;;;12.40;;
50393;SDS011;36308;46.312;25.288;2023-04-03T05:11:39;17.83;;;13.30;;
50393;SDS011;36308;46.312;25.288;2023-04-03T05:14:04;18.23;;;13.20;;
50393;SDS011;36308;46.312;25.288;2023-04-03T05:16:32;22.05;;;14.45;;
50393;SDS011;36308;46.312;25.288;2023-04-03T05:18:58;70.18;;;31.00;;
50393;SDS011;36308;46.312;25.288;2023-04-03T05:21:23;58.45;;;30.38;;
50393;SDS011;36308;46.312;25.288;2023-04-03T05:23:51;82.40;;;42.72;;
50393;SDS011;36308;46.312;25.288;2023-04-03T05:26:17;55.13;;;34.20;;
50393;SDS011;36308;46.312;25.288;2023-04-03T05:28:42;45.25;;;33.08;;
50393;SDS011;36308;46.312;25.288;2023-04-03T05:31:08;45.20;;;33.25;;
50393;SDS011;36308;46.312;25.288;2023-04-03T05:33:34;39.75;;;29.50;;
50393;SDS011;36308;46.312;25.288;2023-04-03T05:36:05;27.67;;;19.13;;
50393;SDS011;36308;46.312;25.288;2023-04-03T05:38:31;12.40;;;7.82;;
50393;SDS011;36308;46.312;25.288;2023-04-03T05:40:57;7.25;;;5.38;;
50393;SDS011;36308;46.312;25.288;2023-04-03T05:43:23;12.32;;;7.93;;
50393;SDS011;36308;46.312;25.288;2023-04-03T05:45:50;7.40;;;5.07;;
50393;SDS011;36308;46.312;25.288;2023-04-03T05:48:17;8.60;;;5.90;;
50393;SDS011;36308;46.312;25.288;2023-04-03T05:50:42;5.20;;;3.92;;
50393;SDS011;36308;46.312;25.288;2023-04-03T05:53:15;8.55;;;5.50;;
50393;SDS011;36308;46.312;25.288;2023-04-03T05:55:46;8.90;;;6.68;;
50393;SDS011;36308;46.312;25.288;2023-04-03T05:58:11;6.68;;;4.88;;
50393;SDS011;36308;46.312;25.288;2023-04-03T06:00:37;5.55;;;4.13;;
50393;SDS011;36308;46.312;25.288;2023-04-03T06:03:02;6.68;;;5.03;;
50393;SDS011;36308;46.312;25.288;2023-04-03T06:05:28;4.70;;;3.03;;
50393;SDS011;36308;46.312;25.288;2023-04-03T06:07:53;4.18;;;2.42;;
50393;SDS011;36308;46.312;25.288;2023-04-03T06:10:19;3.60;;;2.05;;
50393;SDS011;36308;46.312;25.288;2023-04-03T06:12:45;2.95;;;1.90;;
50393;SDS011;36308;46.312;25.288;2023-04-03T06:15:10;2.45;;;1.80;;
50393;SDS011;36308;46.312;25.288;2023-04-03T06:17:36;5.53;;;3.33;;
50393;SDS011;36308;46.312;25.288;2023-04-03T06:20:03;6.65;;;3.10;;
50393;SDS011;36308;46.312;25.288;2023-04-03T06:22:29;13.93;;;5.50;;
50393;SDS011;36308;46.312;25.288;2023-04-03T06:24:56;21.30;;;6.20;;
50393;SDS011;36308;46.312;25.288;2023-04-03T06:27:22;78.70;;;25.30;;
50393;SDS011;36308;46.312;25.288;2023-04-03T06:29:47;39.75;;;13.73;;
50393;SDS011;36308;46.312;25.288;2023-04-03T06:32:14;44.65;;;15.43;;
50393;SDS011;36308;46.312;25.288;2023-04-03T06:34:41;14.32;;;6.60;;
50393;SDS011;36308;46.312;25.288;2023-04-03T06:37:10;12.90;;;4.82;;
50393;SDS011;36308;46.312;25.288;2023-04-03T06:39:46;8.35;;;3.63;;
50393;SDS011;36308;46.312;25.288;2023-04-03T06:42:12;5.47;;;2.40;;
50393;SDS011;36308;46.312;25.288;2023-04-03T06:44:38;4.88;;;2.05;;
50393;SDS011;36308;46.312;25.288;2023-04-03T06:47:04;7.13;;;2.40;;
50393;SDS011;36308;46.312;25.288;2023-04-03T06:49:30;5.15;;;2.30;;
50393;SDS011;36308;46.312;25.288;2023-04-03T06:51:55;8.15;;;2.47;;
50393;SDS011;36308;46.312;25.288;2023-04-03T06:54:21;3.20;;;2.08;;
50393;SDS011;36308;46.312;25.288;2023-04-03T06:56:47;4.18;;;2.30;;
50393;SDS011;36308;46.312;25.288;2023-04-03T06:59:13;3.20;;;2.25;;
50393;SDS011;36308;46.312;25.288;2023-04-03T07:01:40;3.10;;;2.55;;
50393;SDS011;36308;46.312;25.288;2023-04-03T07:04:06;3.30;;;1.75;;
50393;SDS011;36308;46.312;25.288;2023-04-03T07:06:32;3.13;;;2.05;;
50393;SDS011;36308;46.312;25.288;2023-04-03T07:08:58;3.25;;;2.13;;
50393;SDS011;36308;46.312;25.288;2023-04-03T07:11:25;5.93;;;3.60;;
50393;SDS011;36308;46.312;25.288;2023-04-03T07:13:51;5.82;;;3.92;;
50393;SDS011;36308;46.312;25.288;2023-04-03T07:16:17;7.65;;;4.43;;
50393;SDS011;36308;46.312;25.288;2023-04-03T07:18:43;7.88;;;4.97;;
50393;SDS011;36308;46.312;25.288;2023-04-03T07:21:09;8.43;;;5.13;;
50393;SDS011;36308;46.312;25.288;2023-04-03T07:23:35;7.35;;;5.18;;
50393;SDS011;36308;46.312;25.288;2023-04-03T07:26:01;8.27;;;5.72;;
50393;SDS011;36308;46.312;25.288;2023-04-03T07:28:26;5.60;;;3.53;;
50393;SDS011;36308;46.312;25.288;2023-04-03T07:30:53;4.05;;;2.63;;
50393;SDS011;36308;46.312;25.288;2023-04-03T07:33:25;6.35;;;4.38;;
50393;SDS011;36308;46.312;25.288;2023-04-03T07:35:51;4.97;;;3.10;;
50393;SDS011;36308;46.312;25.288;2023-04-03T07:38:17;5.93;;;3.13;;
50393;SDS011;36308;46.312;25.288;2023-04-03T07:40:49;6.43;;;4.22;;
50393;SDS011;36308;46.312;25.288;2023-04-03T07:43:16;6.50;;;3.75;;
50393;SDS011;36308;46.312;25.288;2023-04-03T07:45:42;7.18;;;3.00;;
50393;SDS011;36308;46.312;25.288;2023-04-03T07:48:09;13.18;;;4.18;;
50393;SDS011;36308;46.312;25.288;2023-04-03T07:50:36;4.72;;;2.88;;
50393;SDS011;36308;46.312;25.288;2023-04-03T07:53:01;4.78;;;2.22;;
50393;SDS011;36308;46.312;25.288;2023-04-03T07:55:27;4.53;;;2.30;;
50393;SDS011;36308;46.312;25.288;2023-04-03T07:57:53;10.45;;;3.47;;
50393;SDS011;36308;46.312;25.288;2023-04-03T08:00:19;2.85;;;1.40;;
50393;SDS011;36308;46.312;25.288;2023-04-03T08:02:45;2.45;;;1.48;;
50393;SDS011;36308;46.312;25.288;2023-04-03T08:05:15;4.90;;;2.22;;
50393;SDS011;36308;46.312;25.288;2023-04-03T08:07:42;3.83;;;2.00;;
50393;SDS011;36308;46.312;25.288;2023-04-03T08:10:08;5.25;;;2.00;;
50393;SDS011;36308;46.312;25.288;2023-04-03T08:12:34;3.33;;;1.35;;
50393;SDS011;36308;46.312;25.288;2023-04-03T08:15:02;3.38;;;2.55;;
50393;SDS011;36308;46.312;25.288;2023-04-03T08:17:29;8.43;;;2.70;;
50393;SDS011;36308;46.312;25.288;2023-04-03T08:19:54;3.10;;;1.77;;
50393;SDS011;36308;46.312;25.288;2023-04-03T08:22:20;6.47;;;1.60;;
50393;SDS011;36308;46.312;25.288;2023-04-03T08:24:46;6.20;;;3.40;;
50393;SDS011;36308;46.312;25.288;2023-04-03T08:27:11;4.80;;;2.17;;
50393;SDS011;36308;46.312;25.288;2023-04-03T08:29:37;7.90;;;1.92;;
50393;SDS011;36308;46.312;25.288;2023-04-03T08:32:03;3.63;;;2.05;;
50393;SDS011;36308;46.312;25.288;2023-04-03T08:34:29;3.75;;;1.70;;
50393;SDS011;36308;46.312;25.288;2023-04-03T08:36:55;8.07;;;2.60;;
50393;SDS011;36308;46.312;25.288;2023-04-03T08:39:21;4.35;;;2.65;;
50393;SDS011;36308;46.312;25.288;2023-04-03T08:41:47;5.18;;;2.50;;
50393;SDS011;36308;46.312;25.288;2023-04-03T08:44:22;3.83;;;2.13;;
50393;SDS011;36308;46.312;25.288;2023-04-03T08:47:02;18.13;;;8.48;;
50393;SDS011;36308;46.312;25.288;2023-04-03T08:49:53;22.10;;;10.43;;
50393;SDS011;36308;46.312;25.288;2023-04-03T08:57:45;9.70;;;4.78;;
50393;SDS011;36308;46.312;25.288;2023-04-03T09:05:17;16.90;;;7.82;;
50393;SDS011;36308;46.312;25.288;2023-04-03T09:07:46;11.65;;;5.75;;
50393;SDS011;36308;46.312;25.288;2023-04-03T09:10:26;5.22;;;2.22;;
50393;SDS011;36308;46.312;25.288;2023-04-03T09:15:43;5.63;;;2.65;;
50393;SDS011;36308;46.312;25.288;2023-04-03T09:18:23;12.23;;;7.15;;
50393;SDS011;36308;46.312;25.288;2023-04-03T09:21:04;4.88;;;1.85;;
50393;SDS011;36308;46.312;25.288;2023-04-03T09:23:47;15.13;;;7.72;;
50393;SDS011;36308;46.312;25.288;2023-04-03T09:28:44;3.22;;;1.45;;
50393;SDS011;36308;46.312;25.288;2023-04-03T09:33:51;2.80;;;1.30;;
50393;SDS011;36308;46.312;25.288;2023-04-03T09:36:38;2.10;;;1.27;;
50393;SDS011;36308;46.312;25.288;2023-04-03T09:39:12;2.10;;;1.20;;
50393;SDS011;36308;46.312;25.288;2023-04-03T09:41:43;1.27;;;1.10;;
50393;SDS011;36308;46.312;25.288;2023-04-03T09:44:36;1.42;;;1.10;;
50393;SDS011;36308;46.312;25.288;2023-04-03T09:47:44;5.38;;;1.40;;
50393;SDS011;36308;46.312;25.288;2023-04-03T09:50:08;5.38;;;1.90;;
50393;SDS011;36308;46.312;25.288;2023-04-03T09:52:40;11.98;;;6.72;;
50393;SDS011;36308;46.312;25.288;2023-04-03T09:55:18;2.20;;;0.90;;
50393;SDS011;36308;46.312;25.288;2023-04-03T09:57:54;1.60;;;0.80;;
50393;SDS011;36308;46.312;25.288;2023-04-03T10:00:24;1.20;;;0.82;;
50393;SDS011;36308;46.312;25.288;2023-04-03T10:02:57;1.50;;;1.00;;
50393;SDS011;36308;46.312;25.288;2023-04-03T10:05:36;1.75;;;1.23;;
50393;SDS011;36308;46.312;25.288;2023-04-03T10:11:09;1.42;;;1.00;;
50393;SDS011;36308;46.312;25.288;2023-04-03T10:13:35;2.80;;;1.35;;
50393;SDS011;36308;46.312;25.288;2023-04-03T10:16:07;1.95;;;1.27;;
50393;SDS011;36308;46.312;25.288;2023-04-03T10:27:13;2.95;;;2.10;;
50393;SDS011;36308;46.312;25.288;2023-04-03T10:32:47;1.50;;;1.10;;
50393;SDS011;36308;46.312;25.288;2023-04-03T10:38:24;2.92;;;1.90;;
50393;SDS011;36308;46.312;25.288;2023-04-03T10:41:10;5.53;;;1.95;;
50393;SDS011;36308;46.312;25.288;2023-04-03T10:46:27;1.70;;;1.30;;
50393;SDS011;36308;46.312;25.288;2023-04-03T10:49:04;7.30;;;3.90;;
50393;SDS011;36308;46.312;25.288;2023-04-03T10:51:45;3.00;;;1.80;;
50393;SDS011;36308;46.312;25.288;2023-04-03T10:54:26;2.58;;;1.50;;
50393;SDS011;36308;46.312;25.288;2023-04-03T10:57:03;3.83;;;2.53;;
50393;SDS011;36308;46.312;25.288;2023-04-03T10:59:41;2.15;;;1.25;;
50393;SDS011;36308;46.312;25.288;2023-04-03T11:04:59;3.72;;;2.72;;
50393;SDS011;36308;46.312;25.288;2023-04-03T11:07:32;3.83;;;2.50;;
50393;SDS011;36308;46.312;25.288;2023-04-03T11:10:03;6.15;;;4.00;;
50393;SDS011;36308;46.312;25.288;2023-04-03T11:12:46;2.58;;;1.60;;
50393;SDS011;36308;46.312;25.288;2023-04-03T11:15:19;11.93;;;5.30;;
50393;SDS011;36308;46.312;25.288;2023-04-03T11:17:57;6.88;;;4.32;;
50393;SDS011;36308;46.312;25.288;2023-04-03T11:20:31;4.80;;;1.55;;
50393;SDS011;36308;46.312;25.288;2023-04-03T11:25:46;4.03;;;1.40;;
50393;SDS011;36308;46.312;25.288;2023-04-03T11:28:17;5.53;;;1.88;;
50393;SDS011;36308;46.312;25.288;2023-04-03T11:35:53;1.60;;;1.23;;
50393;SDS011;36308;46.312;25.288;2023-04-03T11:38:27;2.65;;;1.80;;
50393;SDS011;36308;46.312;25.288;2023-04-03T11:41:01;2.17;;;1.42;;
50393;SDS011;36308;46.312;25.288;2023-04-03T11:43:30;4.63;;;2.20;;
50393;SDS011;36308;46.312;25.288;2023-04-03T11:53:37;8.13;;;3.88;;
50393;SDS011;36308;46.312;25.288;2023-04-03T12:01:51;4.63;;;2.45;;
50393;SDS011;36308;46.312;25.288;2023-04-03T12:04:18;3.90;;;2.28;;
50393;SDS011;36308;46.312;25.288;2023-04-03T12:12:49;1.75;;;1.00;;
50393;SDS011;36308;46.312;25.288;2023-04-03T12:15:11;4.88;;;1.38;;
50393;SDS011;36308;46.312;25.288;2023-04-03T12:17:57;3.15;;;1.60;;
50393;SDS011;36308;46.312;25.288;2023-04-03T12:25:51;5.97;;;1.85;;
50393;SDS011;36308;46.312;25.288;2023-04-03T12:28:25;11.05;;;5.40;;
50393;SDS011;36308;46.312;25.288;2023-04-03T12:30:52;14.07;;;6.18;;
50393;SDS011;36308;46.312;25.288;2023-04-03T12:33:20;8.80;;;3.70;;
50393;SDS011;36308;46.312;25.288;2023-04-03T12:36:06;8.82;;;3.78;;
50393;SDS011;36308;46.312;25.288;2023-04-03T12:46:20;4.65;;;2.58;;
50393;SDS011;36308;46.312;25.288;2023-04-03T12:51:26;8.85;;;3.13;;
50393;SDS011;36308;46.312;25.288;2023-04-03T12:57:16;11.93;;;5.40;;
50393;SDS011;36308;46.312;25.288;2023-04-03T12:59:43;7.70;;;3.22;;
50393;SDS011;36308;46.312;25.288;2023-04-03T13:02:17;14.77;;;3.10;;
50393;SDS011;36308;46.312;25.288;2023-04-03T13:04:48;2.53;;;2.00;;
50393;SDS011;36308;46.312;25.288;2023-04-03T13:07:24;8.48;;;3.38;;
50393;SDS011;36308;46.312;25.288;2023-04-03T13:12:30;9.98;;;4.45;;
50393;SDS011;36308;46.312;25.288;2023-04-03T13:14:57;7.13;;;3.08;;
50393;SDS011;36308;46.312;25.288;2023-04-03T13:17:26;23.23;;;11.38;;
50393;SDS011;36308;46.312;25.288;2023-04-03T13:19:53;16.35;;;7.28;;
50393;SDS011;36308;46.312;25.288;2023-04-03T13:22:30;9.23;;;5.18;;
50393;SDS011;36308;46.312;25.288;2023-04-03T13:24:58;5.28;;;2.83;;
50393;SDS011;36308;46.312;25.288;2023-04-03T13:27:27;5.75;;;2.10;;
50393;SDS011;36308;46.312;25.288;2023-04-03T13:29:56;5.75;;;2.55;;
50393;SDS011;36308;46.312;25.288;2023-04-03T13:32:24;5.72;;;2.90;;
50393;SDS011;36308;46.312;25.288;2023-04-03T13:34:52;35.03;;;16.67;;
50393;SDS011;36308;46.312;25.288;2023-04-03T13:37:22;63.20;;;28.98;;
50393;SDS011;36308;46.312;25.288;2023-04-03T13:42:37;19.83;;;8.15;;
50393;SDS011;36308;46.312;25.288;2023-04-03T13:47:49;26.30;;;11.20;;
50393;SDS011;36308;46.312;25.288;2023-04-03T13:52:46;15.18;;;7.15;;
50393;SDS011;36308;46.312;25.288;2023-04-03T14:00:20;33.60;;;16.55;;
50393;SDS011;36308;46.312;25.288;2023-04-03T14:05:57;28.30;;;15.88;;
50393;SDS011;36308;46.312;25.288;2023-04-03T14:08:23;17.98;;;12.43;;
50393;SDS011;36308;46.312;25.288;2023-04-03T14:10:49;18.15;;;12.15;;
50393;SDS011;36308;46.312;25.288;2023-04-03T14:13:17;16.75;;;12.15;;
50393;SDS011;36308;46.312;25.288;2023-04-03T14:15:45;16.40;;;11.05;;
50393;SDS011;36308;46.312;25.288;2023-04-03T14:18:14;19.95;;;11.68;;
50393;SDS011;36308;46.312;25.288;2023-04-03T14:20:41;19.50;;;12.45;;
50393;SDS011;36308;46.312;25.288;2023-04-03T14:23:08;20.98;;;13.43;;
50393;SDS011;36308;46.312;25.288;2023-04-03T14:25:34;30.33;;;18.75;;
50393;SDS011;36308;46.312;25.288;2023-04-03T14:28:00;35.35;;;23.65;;
50393;SDS011;36308;46.312;25.288;2023-04-03T14:30:32;33.15;;;21.42;;
50393;SDS011;36308;46.312;25.288;2023-04-03T14:32:59;20.88;;;14.75;;
50393;SDS011;36308;46.312;25.288;2023-04-03T14:35:25;10.23;;;6.90;;
50393;SDS011;36308;46.312;25.288;2023-04-03T14:37:52;17.30;;;12.00;;
50393;SDS011;36308;46.312;25.288;2023-04-03T14:40:20;13.80;;;9.48;;
50393;SDS011;36308;46.312;25.288;2023-04-03T14:42:50;12.82;;;8.82;;
50393;SDS011;36308;46.312;25.288;2023-04-03T14:45:16;12.20;;;9.73;;
50393;SDS011;36308;46.312;25.288;2023-04-03T14:47:50;14.65;;;10.02;;
50393;SDS011;36308;46.312;25.288;2023-04-03T14:50:22;12.90;;;9.52;;
50393;SDS011;36308;46.312;25.288;2023-04-03T14:52:51;14.07;;;8.45;;
50393;SDS011;36308;46.312;25.288;2023-04-03T14:55:19;11.98;;;7.70;;
50393;SDS011;36308;46.312;25.288;2023-04-03T14:57:47;10.23;;;7.03;;
50393;SDS011;36308;46.312;25.288;2023-04-03T15:00:15;12.13;;;8.27;;
50393;SDS011;36308;46.312;25.288;2023-04-03T15:02:42;21.88;;;14.00;;
50393;SDS011;36308;46.312;25.288;2023-04-03T15:05:09;19.63;;;12.45;;
50393;SDS011;36308;46.312;25.288;2023-04-03T15:07:36;21.05;;;14.15;;
50393;SDS011;36308;46.312;25.288;2023-04-03T15:10:13;19.73;;;14.10;;
50393;SDS011;36308;46.312;25.288;2023-04-03T15:12:39;24.58;;;16.08;;
50393;SDS011;36308;46.312;25.288;2023-04-03T15:15:05;23.15;;;15.30;;
50393;SDS011;36308;46.312;25.288;2023-04-03T15:17:31;19.60;;;15.35;;
50393;SDS011;36308;46.312;25.288;2023-04-03T15:19:57;24.13;;;18.30;;
50393;SDS011;36308;46.312;25.288;2023-04-03T15:22:23;28.10;;;18.85;;
50393;SDS011;36308;46.312;25.288;2023-04-03T15:24:49;14.93;;;11.63;;
50393;SDS011;36308;46.312;25.288;2023-04-03T15:27:15;20.08;;;14.25;;
50393;SDS011;36308;46.312;25.288;2023-04-03T15:29:41;15.80;;;12.15;;
50393;SDS011;36308;46.312;25.288;2023-04-03T15:32:08;19.60;;;15.25;;
50393;SDS011;36308;46.312;25.288;2023-04-03T15:34:36;21.23;;;17.40;;
50393;SDS011;36308;46.312;25.288;2023-04-03T15:37:01;23.88;;;20.55;;
50393;SDS011;36308;46.312;25.288;2023-04-03T15:39:27;23.13;;;17.48;;
50393;SDS011;36308;46.312;25.288;2023-04-03T15:41:53;22.48;;;17.10;;
50393;SDS011;36308;46.312;25.288;2023-04-03T15:44:19;31.30;;;18.00;;
50393;SDS011;36308;46.312;25.288;2023-04-03T15:46:46;24.00;;;16.98;;
50393;SDS011;36308;46.312;25.288;2023-04-03T15:49:13;21.13;;;15.60;;
50393;SDS011;36308;46.312;25.288;2023-04-03T15:51:39;20.08;;;13.95;;
50393;SDS011;36308;46.312;25.288;2023-04-03T15:54:05;44.22;;;31.05;;
50393;SDS011;36308;46.312;25.288;2023-04-03T15:56:30;51.80;;;39.47;;
50393;SDS011;36308;46.312;25.288;2023-04-03T15:58:56;53.58;;;38.22;;
50393;SDS011;36308;46.312;25.288;2023-04-03T16:01:22;55.47;;;41.38;;
50393;SDS011;36308;46.312;25.288;2023-04-03T16:03:47;33.70;;;22.98;;
50393;SDS011;36308;46.312;25.288;2023-04-03T16:06:16;22.63;;;15.57;;
50393;SDS011;36308;46.312;25.288;2023-04-03T16:08:44;20.17;;;13.38;;
50393;SDS011;36308;46.312;25.288;2023-04-03T16:11:11;16.83;;;11.63;;
50393;SDS011;36308;46.312;25.288;2023-04-03T16:13:37;9.80;;;6.47;;
50393;SDS011;36308;46.312;25.288;2023-04-03T16:16:03;13.43;;;8.98;;
50393;SDS011;36308;46.312;25.288;2023-04-03T16:18:29;15.07;;;9.50;;
50393;SDS011;36308;46.312;25.288;2023-04-03T16:20:55;13.40;;;8.27;;
50393;SDS011;36308;46.312;25.288;2023-04-03T16:23:21;12.45;;;7.20;;
50393;SDS011;36308;46.312;25.288;2023-04-03T16:25:48;10.10;;;6.18;;
50393;SDS011;36308;46.312;25.288;2023-04-03T16:28:15;11.52;;;6.45;;